Time;durP1;ratioP1;P1;durP2;ratioP2;P2;SDS_P1;SDS_P2;PMS_P1;PMS_P2;Temp;Humidity;BMP_temperature;BMP_pressure;BME280_temperature;BME280_humidity;BME280_pressure;Samples;Min_cycle;Max_cycle;Signal;HPM_P1;HPM_P2
2023/01/27 00:00:08;;;;;;;2.70;2.50;;;21.80;54.70;;;;;;5116513;28;20214;-62
2023/01/27 00:02:56;;;;;;;2.08;1.88;;;21.80;54.70;;;;;;5115884;28;20196;-63
2023/01/27 00:05:45;;;;;;;3.58;2.53;;;21.80;54.60;;;;;;5116067;28;20679;-63
2023/01/27 00:08:33;;;;;;;3.33;2.80;;;21.80;54.70;;;;;;5116877;28;20278;-62
2023/01/27 00:14:28;;;;;;;2.80;2.35;;;21.80;54.60;;;;;;5116482;28;20308;-62
2023/01/27 00:17:16;;;;;;;3.47;2.88;;;21.90;54.60;;;;;;5116080;28;20204;-63
2023/01/27 00:20:06;;;;;;;3.67;2.78;;;21.90;54.60;;;;;;5115775;28;20286;-62
2023/01/27 00:26:00;;;;;;;3.20;2.88;;;21.80;54.50;;;;;;5115644;28;20223;-63
2023/01/27 00:28:49;;;;;;;3.38;2.30;;;21.90;54.60;;;;;;5115648;28;20675;-62
2023/01/27 00:34:43;;;;;;;3.95;2.53;;;21.90;54.60;;;;;;5115149;28;20737;-63
2023/01/27 00:37:31;;;;;;;4.07;2.90;;;21.90;54.70;;;;;;5116479;28;20244;-63
2023/01/27 00:40:19;;;;;;;3.13;2.30;;;21.80;54.60;;;;;;5113493;28;20207;-63
2023/01/27 00:43:07;;;;;;;3.05;2.28;;;21.80;54.60;;;;;;5115723;28;20200;-62
2023/01/27 00:45:57;;;;;;;3.53;2.53;;;21.80;54.60;;;;;;5115093;28;20296;-63
2023/01/27 00:48:45;;;;;;;2.88;2.17;;;21.80;54.60;;;;;;5115887;28;20199;-62
2023/01/27 00:51:35;;;;;;;3.42;2.90;;;21.80;54.60;;;;;;5115329;28;20311;-62
2023/01/27 00:54:23;;;;;;;2.55;2.13;;;21.80;54.70;;;;;;5115627;28;20242;-62
2023/01/27 00:57:11;;;;;;;4.90;2.45;;;21.80;54.70;;;;;;5114933;28;20745;-62
2023/01/27 00:59:59;;;;;;;3.50;2.30;;;21.80;54.60;;;;;;5114979;28;20213;-62
2023/01/27 01:02:48;;;;;;;2.53;2.33;;;21.80;54.60;;;;;;5114626;28;20264;-63
2023/01/27 01:05:37;;;;;;;2.78;2.28;;;21.80;54.60;;;;;;5115559;28;20705;-62
2023/01/27 01:08:25;;;;;;;3.55;2.30;;;21.80;54.70;;;;;;5115037;28;20196;-63
2023/01/27 01:11:15;;;;;;;2.92;2.65;;;21.80;54.70;;;;;;5113822;28;20697;-62
2023/01/27 01:14:03;;;;;;;4.38;2.10;;;21.80;54.80;;;;;;5114683;28;20215;-62
2023/01/27 01:16:51;;;;;;;2.42;2.22;;;21.80;54.80;;;;;;5114825;28;20207;-63
2023/01/27 01:19:40;;;;;;;3.70;2.58;;;21.80;54.90;;;;;;5113832;28;20195;-63
2023/01/27 01:22:28;;;;;;;2.47;2.28;;;21.80;54.80;;;;;;5114944;28;20206;-63
2023/01/27 01:25:16;;;;;;;3.40;2.50;;;21.80;54.80;;;;;;5114385;28;20251;-62
2023/01/27 01:28:05;;;;;;;5.13;2.45;;;21.80;54.80;;;;;;5114694;28;20195;-63
2023/01/27 01:30:53;;;;;;;2.60;2.38;;;21.90;54.80;;;;;;5114055;28;20264;-63
2023/01/27 01:33:42;;;;;;;3.03;2.83;;;21.90;58.20;;;;;;5114708;28;20195;-62
2023/01/27 01:36:31;;;;;;;3.50;2.65;;;21.90;54.80;;;;;;5113608;28;20256;-62
2023/01/27 01:39:19;;;;;;;3.55;2.70;;;22.00;54.80;;;;;;5114963;28;20209;-62
2023/01/27 01:42:07;;;;;;;2.50;2.30;;;21.90;54.70;;;;;;5114921;28;20199;-62
2023/01/27 01:45:40;;;;;;;2.65;2.22;;;22.00;54.80;;;;;;5114672;28;20294;-62
2023/01/27 01:48:33;;;;;;;3.83;2.47;;;21.90;54.60;;;;;;5113980;28;20199;-63
2023/01/27 01:51:25;;;;;;;2.22;2.03;;;21.90;54.70;;;;;;5114303;28;20230;-63
2023/01/27 01:54:17;;;;;;;2.60;2.28;;;21.90;54.70;;;;;;5113811;28;20246;-61
2023/01/27 01:57:10;;;;;;;2.97;2.50;;;21.90;54.70;;;;;;5107499;28;20204;-62
2023/01/27 02:00:02;;;;;;;3.47;2.22;;;21.90;54.70;;;;;;5093537;28;20279;-63
2023/01/27 02:02:53;;;;;;;2.83;2.33;;;21.90;54.80;;;;;;5094677;28;20203;-63
2023/01/27 02:05:44;;;;;;;2.67;2.42;;;21.90;54.80;;;;;;5094317;28;20223;-63
2023/01/27 02:08:39;;;;;;;2.65;2.20;;;21.80;54.80;;;;;;5093928;28;20200;-63
2023/01/27 02:11:29;;;;;;;2.88;2.22;;;21.80;54.90;;;;;;5093779;28;20223;-62
2023/01/27 02:14:18;;;;;;;2.53;2.05;;;21.80;54.80;;;;;;5094440;28;20544;-63
2023/01/27 02:17:07;;;;;;;2.35;2.15;;;21.80;54.90;;;;;;5093444;28;20210;-63
2023/01/27 02:20:03;;;;;;;2.75;2.25;;;21.80;54.90;;;;;;5093995;28;20278;-62
2023/01/27 02:23:03;;;;;;;2.40;2.20;;;21.80;54.80;;;;;;5102733;27;20728;-62
2023/01/27 02:25:57;;;;;;;2.95;2.17;;;21.80;54.90;;;;;;5100908;28;20285;-62
2023/01/27 02:28:51;;;;;;;2.63;2.42;;;21.80;54.90;;;;;;5093392;28;20196;-62
2023/01/27 02:31:39;;;;;;;2.45;2.05;;;21.90;54.90;;;;;;5093194;28;20301;-62
2023/01/27 02:34:32;;;;;;;2.47;2.00;;;21.90;54.90;;;;;;5093248;28;20314;-62
2023/01/27 02:37:21;;;;;;;2.47;2.15;;;21.90;54.80;;;;;;5093411;28;20680;-63
2023/01/27 02:40:11;;;;;;;3.35;2.55;;;21.90;54.80;;;;;;5093179;28;20227;-63
2023/01/27 02:43:04;;;;;;;2.38;2.20;;;21.90;54.70;;;;;;5092793;28;20279;-62
2023/01/27 02:45:52;;;;;;;2.80;2.35;;;21.90;54.70;;;;;;5093691;28;20220;-62
2023/01/27 02:48:40;;;;;;;2.97;2.50;;;21.90;54.80;;;;;;5093227;28;20668;-62
2023/01/27 02:51:28;;;;;;;2.50;2.30;;;21.90;54.80;;;;;;5092434;28;20277;-62
2023/01/27 02:54:16;;;;;;;2.97;2.28;;;21.80;54.80;;;;;;5092504;28;20277;-63
2023/01/27 02:57:04;;;;;;;2.80;2.33;;;21.80;54.80;;;;;;5092963;28;20691;-62
2023/01/27 02:59:53;;;;;;;3.45;2.63;;;21.90;55.00;;;;;;5091931;28;20200;-63
2023/01/27 03:02:41;;;;;;;2.85;2.17;;;21.80;55.00;;;;;;5093541;28;20238;-62
2023/01/27 03:05:29;;;;;;;3.95;2.45;;;21.80;54.90;;;;;;5096076;28;20721;-63
2023/01/27 03:08:18;;;;;;;3.30;2.35;;;21.80;55.00;;;;;;5097392;28;20272;-63
2023/01/27 03:11:06;;;;;;;3.22;2.50;;;21.80;55.00;;;;;;5095583;28;20282;-62
2023/01/27 03:13:54;;;;;;;2.25;2.13;;;22.00;58.80;;;;;;5096479;28;20739;-63
2023/01/27 03:19:52;;;;;;;3.60;2.67;;;21.90;55.00;;;;;;5096473;28;20220;-62
2023/01/27 03:22:40;;;;;;;3.10;2.00;;;21.90;54.90;;;;;;5096566;28;20691;-63
2023/01/27 03:25:28;;;;;;;3.30;2.45;;;21.90;54.80;;;;;;5095376;28;20212;-63
2023/01/27 03:28:16;;;;;;;2.75;2.42;;;22.00;54.90;;;;;;5096273;28;20235;-63
2023/01/27 03:31:06;;;;;;;3.70;2.75;;;22.00;54.90;;;;;;5095554;28;20196;-63
2023/01/27 03:33:55;;;;;;;2.28;2.03;;;22.00;57.70;;;;;;5095599;28;20547;-63
2023/01/27 03:46:18;;;;;;;2.00;1.80;;;22.00;54.80;;;;;;5115283;28;20682;-62
2023/01/27 03:49:08;;;;;;;2.25;2.05;;;21.90;54.70;;;;;;5113663;28;20219;-63
2023/01/27 03:51:56;;;;;;;2.22;2.03;;;21.90;54.80;;;;;;5113972;28;20683;-62
2023/01/27 03:54:44;;;;;;;2.65;2.28;;;21.90;54.90;;;;;;5115738;28;20207;-63
2023/01/27 03:57:32;;;;;;;3.83;2.50;;;21.80;54.90;;;;;;5115337;28;20685;-63
2023/01/27 04:00:20;;;;;;;2.40;1.92;;;21.80;54.90;;;;;;5114457;28;20196;-62
2023/01/27 04:09:25;;;;;;;2.63;2.22;;;21.80;55.00;;;;;;5114091;28;20314;-63
2023/01/27 04:12:13;;;;;;;2.40;2.20;;;21.80;55.00;;;;;;5114640;28;20207;-63
2023/01/27 04:15:01;;;;;;;2.22;2.03;;;21.80;55.00;;;;;;5114916;28;20261;-63
2023/01/27 04:17:50;;;;;;;3.13;2.38;;;22.10;55.00;;;;;;5114893;28;20195;-62
2023/01/27 04:20:38;;;;;;;2.85;2.20;;;21.90;54.90;;;;;;5113432;28;20804;-63
2023/01/27 04:23:27;;;;;;;3.38;2.30;;;21.90;54.80;;;;;;5115428;28;20253;-62
2023/01/27 04:26:15;;;;;;;3.42;2.70;;;21.90;54.80;;;;;;5115677;28;20211;-63
2023/01/27 04:29:06;;;;;;;3.72;2.50;;;21.90;54.80;;;;;;5115539;28;20298;-62
2023/01/27 04:31:56;;;;;;;2.83;2.40;;;21.90;54.80;;;;;;5114102;28;20199;-63
2023/01/27 04:34:45;;;;;;;2.20;2.00;;;21.90;54.90;;;;;;5114384;28;20282;-62
2023/01/27 04:37:33;;;;;;;2.92;2.25;;;21.80;54.80;;;;;;5114444;28;20329;-62
2023/01/27 04:40:22;;;;;;;2.75;2.42;;;21.80;54.90;;;;;;5114081;28;20239;-62
2023/01/27 04:43:10;;;;;;;2.75;2.45;;;21.80;54.90;;;;;;5114708;28;20195;-63
2023/01/27 04:45:58;;;;;;;2.97;2.35;;;21.90;55.00;;;;;;5113904;28;20274;-63
2023/01/27 04:48:46;;;;;;;2.85;2.53;;;21.90;55.00;;;;;;5114695;28;20241;-63
2023/01/27 04:51:35;;;;;;;2.72;2.15;;;21.90;55.00;;;;;;5113713;28;20282;-62
2023/01/27 04:54:23;;;;;;;3.00;2.55;;;21.90;55.00;;;;;;5114103;28;20222;-62
2023/01/27 04:57:12;;;;;;;2.17;1.98;;;21.90;54.90;;;;;;5106341;28;20691;-63
2023/01/27 05:00:00;;;;;;;3.17;2.17;;;22.00;55.00;;;;;;5093290;28;20279;-63
2023/01/27 05:02:48;;;;;;;2.88;2.35;;;22.00;54.90;;;;;;5093844;28;20198;-62
2023/01/27 05:05:36;;;;;;;1.98;1.67;;;22.00;54.90;;;;;;5093545;28;20203;-62
2023/01/27 05:08:25;;;;;;;2.60;2.40;;;22.00;54.90;;;;;;5093964;28;20216;-62
2023/01/27 05:11:13;;;;;;;3.95;2.42;;;22.00;54.80;;;;;;5093565;28;20615;-62
2023/01/27 05:14:02;;;;;;;3.13;2.17;;;22.00;54.80;;;;;;5093477;28;20746;-63
2023/01/27 05:16:51;;;;;;;2.45;2.25;;;22.00;54.90;;;;;;5094098;28;20231;-62
2023/01/27 05:19:39;;;;;;;2.58;2.10;;;21.90;54.80;;;;;;5093433;28;20270;-63
2023/01/27 05:22:27;;;;;;;2.60;2.00;;;22.00;54.90;;;;;;5093948;28;20687;-62
2023/01/27 05:25:15;;;;;;;2.38;2.17;;;22.00;54.90;;;;;;5092929;28;20591;-62
2023/01/27 05:28:03;;;;;;;3.08;2.10;;;21.90;54.90;;;;;;5094109;28;20233;-62
2023/01/27 05:30:53;;;;;;;2.55;2.35;;;21.90;54.90;;;;;;5092904;28;20227;-63
2023/01/27 05:33:42;;;;;;;3.88;2.22;;;21.80;54.90;;;;;;5093529;28;20591;-63
2023/01/27 05:36:31;;;;;;;2.25;2.05;;;21.80;55.00;;;;;;5092846;28;20246;-63
2023/01/27 05:39:19;;;;;;;2.45;2.20;;;21.80;55.00;;;;;;5093138;28;20722;-62
2023/01/27 05:42:07;;;;;;;3.78;2.53;;;21.80;55.10;;;;;;5093476;28;20279;-63
2023/01/27 05:44:55;;;;;;;2.35;2.15;;;21.70;55.10;;;;;;5092840;28;20681;-63
2023/01/27 05:47:48;;;;;;;2.33;1.90;;;21.80;55.00;;;;;;5093395;28;20231;-63
2023/01/27 05:50:36;;;;;;;2.83;1.90;;;21.80;55.20;;;;;;5092502;28;20210;-63
2023/01/27 05:53:25;;;;;;;3.47;2.42;;;21.80;55.20;;;;;;5092955;28;20223;-63
2023/01/27 05:56:15;;;;;;;3.10;2.10;;;21.80;55.10;;;;;;5092859;28;20261;-63
2023/01/27 05:59:03;;;;;;;2.25;2.05;;;21.90;55.20;;;;;;5091837;28;20223;-63
2023/01/27 06:01:51;;;;;;;2.47;2.08;;;21.90;55.10;;;;;;5092462;28;20207;-63
2023/01/27 06:04:41;;;;;;;2.75;2.20;;;21.90;55.10;;;;;;5092540;28;20234;-63
2023/01/27 06:07:29;;;;;;;3.00;2.05;;;22.00;55.10;;;;;;5091924;28;20278;-63
2023/01/27 06:10:17;;;;;;;2.20;1.75;;;22.00;55.00;;;;;;5091641;28;20228;-63
2023/01/27 06:13:05;;;;;;;2.85;2.38;;;22.00;55.00;;;;;;5092757;28;20295;-63
2023/01/27 06:15:54;;;;;;;3.38;2.05;;;22.00;55.60;;;;;;5091910;28;20200;-63
2023/01/27 06:18:43;;;;;;;2.83;2.60;;;22.00;54.90;;;;;;5091070;28;20224;-63
2023/01/27 06:21:32;;;;;;;3.70;2.60;;;22.00;55.00;;;;;;5091621;28;20622;-63
2023/01/27 06:24:20;;;;;;;2.63;2.10;;;21.90;55.50;;;;;;5090787;28;20192;-63
2023/01/27 06:27:09;;;;;;;2.75;2.05;;;21.90;54.90;;;;;;5091969;28;20647;-63
2023/01/27 06:29:57;;;;;;;1.95;1.85;;;21.90;55.00;;;;;;5090300;28;20681;-63
2023/01/27 06:32:45;;;;;;;2.25;2.05;;;21.80;55.00;;;;;;5092120;28;20199;-63
2023/01/27 06:35:35;;;;;;;3.22;2.47;;;21.80;55.10;;;;;;5091744;28;20202;-62
2023/01/27 06:38:24;;;;;;;1.95;1.58;;;21.70;55.20;;;;;;5100998;28;20365;-62
2023/01/27 06:41:12;;;;;;;4.15;2.70;;;21.70;55.30;;;;;;5109476;28;20667;-62
2023/01/27 06:44:00;;;;;;;2.83;2.30;;;21.70;55.30;;;;;;5111780;28;20313;-62
2023/01/27 06:46:50;;;;;;;3.88;2.10;;;21.70;55.30;;;;;;5110788;28;20231;-62
2023/01/27 06:49:37;;;;;;;2.42;2.22;;;21.70;55.40;;;;;;5110241;28;20302;-64
2023/01/27 06:52:25;;;;;;;2.67;2.25;;;21.80;55.50;;;;;;5092809;28;20394;-64
2023/01/27 06:55:15;;;;;;;2.65;2.10;;;21.80;55.60;;;;;;5091644;28;20242;-62
2023/01/27 06:58:03;;;;;;;1.98;1.83;;;21.90;55.60;;;;;;5105552;28;20249;-62
2023/01/27 07:00:51;;;;;;;3.10;2.40;;;21.90;55.60;;;;;;5110575;28;20675;-62
2023/01/27 07:03:39;;;;;;;2.67;2.25;;;21.90;55.50;;;;;;5091521;28;20673;-62
2023/01/27 07:06:31;;;;;;;4.10;1.88;;;22.00;55.60;;;;;;5091365;28;20207;-62
2023/01/27 07:09:19;;;;;;;1.95;1.83;;;22.00;55.60;;;;;;5090256;28;20222;-62
2023/01/27 07:12:08;;;;;;;3.05;1.83;;;22.00;55.50;;;;;;5092405;28;20276;-63
2023/01/27 07:14:56;;;;;;;3.20;2.00;;;22.00;55.50;;;;;;5110512;28;20303;-62
2023/01/27 07:17:44;;;;;;;2.42;1.88;;;22.00;55.20;;;;;;5111617;28;20568;-62
2023/01/27 07:20:33;;;;;;;2.40;2.10;;;22.00;55.50;;;;;;5110333;28;20286;-62
2023/01/27 07:23:21;;;;;;;3.58;1.83;;;22.00;55.60;;;;;;5111363;28;20587;-62
2023/01/27 07:26:09;;;;;;;1.92;1.80;;;22.00;55.50;;;;;;5111452;28;20246;-62
2023/01/27 07:29:13;;;;;;;1.95;1.65;;;21.90;55.50;;;;;;5111297;28;20285;-62
2023/01/27 07:32:01;;;;;;;2.20;1.75;;;21.90;55.60;;;;;;5111390;28;20282;-62
2023/01/27 07:34:49;;;;;;;2.00;1.80;;;21.90;55.60;;;;;;5111880;28;20219;-62
2023/01/27 07:37:37;;;;;;;2.10;1.70;;;21.80;55.60;;;;;;5111495;28;20286;-62
2023/01/27 07:40:25;;;;;;;3.88;1.83;;;21.80;55.80;;;;;;5111733;28;20286;-62
2023/01/27 07:43:13;;;;;;;1.85;1.55;;;21.80;55.80;;;;;;5111407;28;20191;-64
2023/01/27 07:46:03;;;;;;;1.70;1.60;;;21.80;55.80;;;;;;5109573;28;20257;-64
2023/01/27 07:48:51;;;;;;;2.08;1.65;;;21.80;55.90;;;;;;5091272;28;20220;-61
2023/01/27 07:51:39;;;;;;;2.28;1.85;;;21.80;55.90;;;;;;5094722;28;20203;-62
2023/01/27 07:54:27;;;;;;;2.10;1.90;;;21.90;55.90;;;;;;5095304;28;20223;-63
2023/01/27 07:57:15;;;;;;;2.25;1.90;;;21.90;55.90;;;;;;5094166;28;20690;-63
2023/01/27 08:00:04;;;;;;;1.67;1.52;;;21.50;55.50;;;;;;5094778;28;20261;-62
2023/01/27 08:02:54;;;;;;;2.40;1.90;;;22.00;55.90;;;;;;5094557;28;20630;-62
2023/01/27 08:05:43;;;;;;;3.13;1.77;;;22.00;55.80;;;;;;5095080;28;20756;-62
2023/01/27 08:08:31;;;;;;;2.05;1.85;;;21.90;55.80;;;;;;5094404;28;20232;-63
2023/01/27 08:11:19;;;;;;;2.00;1.83;;;22.00;55.90;;;;;;5094104;28;20675;-62
2023/01/27 08:14:07;;;;;;;1.85;1.63;;;22.00;55.90;;;;;;5094237;28;20290;-62
2023/01/27 08:16:55;;;;;;;2.92;1.70;;;22.00;55.90;;;;;;5093350;28;20200;-62
2023/01/27 08:19:44;;;;;;;1.92;1.52;;;22.00;55.90;;;;;;5094788;28;20239;-62
2023/01/27 08:22:32;;;;;;;1.40;1.30;;;22.00;55.90;;;;;;5093902;28;20219;-62
2023/01/27 08:25:21;;;;;;;2.15;1.80;;;22.00;55.90;;;;;;5093375;28;20715;-62
2023/01/27 08:28:09;;;;;;;2.30;1.92;;;21.90;55.90;;;;;;5094432;28;20264;-63
2023/01/27 08:31:03;;;;;;;1.98;1.77;;;21.90;55.90;;;;;;5094465;28;20290;-62
2023/01/27 08:33:53;;;;;;;2.55;1.77;;;21.90;56.00;;;;;;5094472;28;20711;-63
2023/01/27 08:36:43;;;;;;;2.00;1.77;;;21.90;56.00;;;;;;5095426;28;20283;-62
2023/01/27 08:39:31;;;;;;;2.03;1.83;;;21.90;56.10;;;;;;5094621;28;20259;-62
2023/01/27 08:42:20;;;;;;;1.98;1.77;;;21.90;56.10;;;;;;5094307;28;20204;-62
2023/01/27 08:45:08;;;;;;;1.60;1.50;;;21.90;56.20;;;;;;5095068;28;20283;-62
2023/01/27 08:47:56;;;;;;;1.40;1.30;;;21.90;59.20;;;;;;5094849;28;20204;-63
2023/01/27 08:50:45;;;;;;;1.40;1.30;;;21.90;56.20;;;;;;5094436;28;20254;-62
2023/01/27 08:53:35;;;;;;;1.75;1.65;;;22.00;56.20;;;;;;5094329;28;20208;-62
2023/01/27 08:56:23;;;;;;;2.03;1.60;;;22.00;56.10;;;;;;5094559;28;20207;-62
2023/01/27 08:59:11;;;;;;;1.67;1.58;;;22.10;56.20;;;;;;5093273;28;20309;-62
2023/01/27 09:01:59;;;;;;;1.77;1.40;;;22.00;56.00;;;;;;5092054;28;20620;-62
2023/01/27 09:04:48;;;;;;;1.58;1.48;;;22.10;56.10;;;;;;5092864;28;20200;-62
2023/01/27 09:07:36;;;;;;;2.58;1.98;;;22.10;56.10;;;;;;5092060;28;20200;-62
2023/01/27 09:10:25;;;;;;;1.58;1.30;;;22.10;56.20;;;;;;5092268;28;20754;-62
2023/01/27 09:13:15;;;;;;;2.25;2.05;;;22.00;56.10;;;;;;5092320;28;20279;-62
2023/01/27 09:16:04;;;;;;;2.30;1.63;;;22.10;56.20;;;;;;5093387;28;20676;-62
2023/01/27 09:18:52;;;;;;;1.65;1.35;;;22.10;56.20;;;;;;5092564;28;20219;-62
2023/01/27 09:21:40;;;;;;;2.10;1.90;;;22.00;56.20;;;;;;5092535;28;20200;-63
2023/01/27 09:24:28;;;;;;;2.10;1.90;;;22.00;56.30;;;;;;5092653;28;20274;-63
2023/01/27 09:27:17;;;;;;;2.95;1.88;;;22.00;56.30;;;;;;5093002;28;20206;-64
2023/01/27 09:30:17;;;;;;;1.98;1.88;;;22.00;56.50;;;;;;5092601;28;20212;-63
2023/01/27 09:33:06;;;;;;;1.60;1.50;;;21.90;56.50;;;;;;5092327;28;20280;-63
2023/01/27 09:35:59;;;;;;;1.98;1.60;;;21.90;56.50;;;;;;5092155;28;20302;-63
2023/01/27 09:38:53;;;;;;;1.52;1.42;;;21.90;56.60;;;;;;5092325;28;20285;-63
2023/01/27 09:41:57;;;;;;;1.95;1.75;;;21.90;56.60;;;;;;5092155;28;20274;-64
2023/01/27 09:45:03;;;;;;;1.40;1.30;;;21.90;56.70;;;;;;5105436;28;20195;-63
2023/01/27 09:48:07;;;;;;;1.50;1.40;;;21.80;60.00;;;;;;5112594;28;20201;-63
2023/01/27 09:51:00;;;;;;;1.95;1.83;;;22.00;56.80;;;;;;5113387;27;20291;-63
2023/01/27 09:54:12;;;;;;;2.83;1.88;;;22.00;56.70;;;;;;5113324;28;20206;-63
2023/01/27 09:57:07;;;;;;;1.60;1.50;;;22.00;56.70;;;;;;5107389;28;20200;-63
2023/01/27 10:00:09;;;;;;;1.65;1.55;;;22.00;56.60;;;;;;5092022;28;20228;-63
2023/01/27 10:03:34;;;;;;;1.55;1.45;;;22.00;56.60;;;;;;5092484;28;20280;-63
2023/01/27 10:06:57;;;;;;;1.42;1.33;;;22.00;56.70;;;;;;5087192;28;20192;-63
2023/01/27 10:10:07;;;;;;;2.38;1.70;;;22.00;56.70;;;;;;5088379;28;20226;-63
2023/01/27 10:13:08;;;;;;;1.70;1.60;;;22.00;56.80;;;;;;5092132;28;20647;-63
2023/01/27 10:16:21;;;;;;;1.58;1.48;;;22.00;56.80;;;;;;5091122;28;20369;-63
2023/01/27 10:19:41;;;;;;;5.00;1.67;;;22.00;56.90;;;;;;5092160;28;20224;-64
2023/01/27 10:22:41;;;;;;;1.60;1.50;;;22.00;56.90;;;;;;5092914;28;20199;-62
2023/01/27 10:25:40;;;;;;;1.58;1.33;;;22.00;56.80;;;;;;5092728;28;20276;-62
2023/01/27 10:28:31;;;;;;;1.52;1.40;;;22.10;56.90;;;;;;5091008;28;20739;-62
2023/01/27 10:31:26;;;;;;;2.20;2.00;;;22.10;56.80;;;;;;5092317;28;20196;-63
2023/01/27 10:34:24;;;;;;;2.92;1.90;;;22.10;56.80;;;;;;5091198;28;20196;-62
2023/01/27 10:37:23;;;;;;;1.48;1.38;;;22.20;56.90;;;;;;5092283;28;20199;-62
2023/01/27 10:40:20;;;;;;;1.30;1.20;;;22.20;56.90;;;;;;5091675;28;20283;-62
2023/01/27 10:43:16;;;;;;;1.80;1.70;;;22.20;56.90;;;;;;5091859;28;20251;-62
2023/01/27 10:46:14;;;;;;;1.52;1.42;;;22.20;56.90;;;;;;5091199;28;20203;-62
2023/01/27 10:49:07;;;;;;;1.65;1.50;;;22.20;56.90;;;;;;5091181;28;20310;-62
2023/01/27 10:52:00;;;;;;;1.60;1.50;;;22.20;56.90;;;;;;5091218;28;20277;-62
2023/01/27 10:54:53;;;;;;;1.50;1.40;;;22.20;57.00;;;;;;5091050;28;20199;-62
2023/01/27 10:57:47;;;;;;;1.40;1.30;;;21.20;56.20;;;;;;5091508;28;20255;-62
2023/01/27 11:00:41;;;;;;;2.25;1.45;;;22.20;57.90;;;;;;5090694;28;20283;-62
2023/01/27 11:03:54;;;;;;;1.58;1.48;;;22.10;57.20;;;;;;5091391;28;20275;-62
2023/01/27 11:06:46;;;;;;;1.40;1.30;;;22.10;57.30;;;;;;5092470;28;20200;-61
2023/01/27 11:09:36;;;;;;;2.35;1.33;;;22.10;57.40;;;;;;5091274;28;20216;-62
2023/01/27 11:12:30;;;;;;;4.20;1.45;;;22.10;57.50;;;;;;5091201;28;20237;-62
2023/01/27 11:15:26;;;;;;;4.40;1.42;;;22.10;57.50;;;;;;5091433;28;20325;-62
2023/01/27 11:18:20;;;;;;;1.55;1.23;;;22.10;57.50;;;;;;5090407;28;20273;-62
2023/01/27 11:21:12;;;;;;;1.50;1.40;;;22.10;57.50;;;;;;5091098;28;20206;-62
2023/01/27 11:24:16;;;;;;;1.55;1.10;;;22.10;57.50;;;;;;5091631;28;20278;-62
2023/01/27 11:27:14;;;;;;;2.75;1.33;;;22.10;57.50;;;;;;5094893;28;20199;-62
2023/01/27 11:30:09;;;;;;;1.60;1.50;;;22.20;57.50;;;;;;5095255;28;20683;-62
2023/01/27 11:33:03;;;;;;;2.50;1.35;;;22.20;57.50;;;;;;5094168;28;20243;-63
2023/01/27 11:35:53;;;;;;;1.40;1.30;;;22.20;57.50;;;;;;5095119;28;20299;-63
2023/01/27 11:38:41;;;;;;;2.22;1.67;;;22.20;57.50;;;;;;5095088;28;20270;-62
2023/01/27 11:41:32;;;;;;;1.50;1.40;;;22.20;57.40;;;;;;5094923;28;20211;-62
2023/01/27 11:44:23;;;;;;;1.65;1.20;;;22.00;57.40;;;;;;5088821;28;20227;-62
2023/01/27 11:47:22;;;;;;;1.55;1.10;;;22.10;57.50;;;;;;5095123;28;20227;-62
2023/01/27 11:50:15;;;;;;;1.33;1.23;;;22.10;57.50;;;;;;5094916;28;20208;-63
2023/01/27 11:53:12;;;;;;;1.55;1.20;;;22.10;57.50;;;;;;5094394;28;20200;-64
2023/01/27 11:56:05;;;;;;;1.63;1.23;;;22.10;57.60;;;;;;5094664;28;20328;-63
2023/01/27 11:59:00;;;;;;;1.30;1.20;;;22.20;57.60;;;;;;5094422;28;20261;-62
2023/01/27 12:01:54;;;;;;;1.77;1.27;;;22.20;57.60;;;;;;5094366;28;20287;-64
2023/01/27 12:04:50;;;;;;;1.02;1.00;;;22.20;57.60;;;;;;5093135;28;20231;-63
2023/01/27 12:07:45;;;;;;;1.70;1.40;;;22.20;57.50;;;;;;5094503;28;20196;-63
2023/01/27 12:10:37;;;;;;;1.10;1.02;;;22.30;57.60;;;;;;5093257;28;20195;-63
2023/01/27 12:13:25;;;;;;;4.22;1.23;;;22.20;57.40;;;;;;5093273;28;20680;-61
2023/01/27 12:16:15;;;;;;;1.25;1.15;;;22.30;57.50;;;;;;5094430;28;20323;-63
2023/01/27 12:19:14;;;;;;;1.60;1.15;;;22.30;57.50;;;;;;5093074;28;20295;-63
2023/01/27 12:22:09;;;;;;;2.92;1.40;;;22.30;57.40;;;;;;5093535;28;20329;-63
2023/01/27 12:25:01;;;;;;;1.40;1.27;;;22.30;57.40;;;;;;5093508;28;20279;-63
2023/01/27 12:27:53;;;;;;;1.52;1.17;;;22.10;60.50;;;;;;5093515;28;20668;-63
2023/01/27 12:30:46;;;;;;;1.13;1.02;;;22.30;57.40;;;;;;5093998;28;20235;-64
2023/01/27 12:33:38;;;;;;;1.60;1.48;;;22.30;57.40;;;;;;5092130;28;20196;-63
2023/01/27 12:36:27;;;;;;;1.38;1.27;;;22.30;58.00;;;;;;5091995;28;20212;-63
2023/01/27 12:39:31;;;;;;;1.27;1.00;;;22.20;57.30;;;;;;5092503;28;20224;-63
2023/01/27 12:42:37;;;;;;;1.13;1.02;;;22.20;57.30;;;;;;5093679;28;20252;-63
2023/01/27 12:45:28;;;;;;;1.52;1.10;;;22.20;57.30;;;;;;5092513;28;20200;-64
2023/01/27 12:48:20;;;;;;;2.42;1.48;;;22.20;57.30;;;;;;5092594;28;20215;-64
2023/01/27 12:51:15;;;;;;;1.42;1.33;;;22.20;57.40;;;;;;5093402;28;20753;-64
2023/01/27 12:54:16;;;;;;;1.65;1.55;;;22.20;57.40;;;;;;5092815;28;20265;-64
2023/01/27 12:57:09;;;;;;;1.60;1.45;;;22.20;57.40;;;;;;5099672;28;20215;-64
2023/01/27 12:59:58;;;;;;;1.10;1.08;;;22.10;57.30;;;;;;5112858;28;20302;-64
2023/01/27 13:02:47;;;;;;;1.40;1.20;;;22.20;57.40;;;;;;5113686;28;20199;-64
2023/01/27 13:05:37;;;;;;;1.52;1.35;;;22.20;57.40;;;;;;5113369;28;20203;-64
2023/01/27 13:08:32;;;;;;;1.50;1.30;;;22.20;57.30;;;;;;5113517;28;20225;-64
2023/01/27 13:11:32;;;;;;;1.58;1.48;;;22.20;57.30;;;;;;5113434;28;20679;-64
2023/01/27 13:14:21;;;;;;;1.63;1.40;;;22.20;57.20;;;;;;5113016;28;20284;-64
2023/01/27 13:17:29;;;;;;;1.35;1.25;;;22.30;57.30;;;;;;5112883;28;20300;-64
2023/01/27 13:20:22;;;;;;;1.85;1.45;;;22.30;57.30;;;;;;5113081;28;20594;-64
2023/01/27 13:23:16;;;;;;;3.08;1.38;;;22.30;57.20;;;;;;5112908;28;20192;-63
2023/01/27 13:26:12;;;;;;;2.65;1.48;;;22.20;57.10;;;;;;5112809;28;20195;-64
2023/01/27 13:29:12;;;;;;;1.80;1.60;;;22.30;57.20;;;;;;5112560;28;20215;-64
2023/01/27 13:32:06;;;;;;;2.53;1.65;;;22.30;57.20;;;;;;5113230;28;20690;-64
2023/01/27 13:35:02;;;;;;;1.88;1.45;;;22.20;57.10;;;;;;5112696;28;20250;-64
2023/01/27 13:37:59;;;;;;;4.15;1.60;;;22.00;56.80;;;;;;5113005;28;20701;-64
2023/01/27 13:40:48;;;;;;;1.40;1.30;;;22.20;57.20;;;;;;5113565;28;20274;-64
2023/01/27 13:43:41;;;;;;;1.33;1.23;;;22.20;57.30;;;;;;5112725;28;20244;-64
2023/01/27 13:46:34;;;;;;;1.48;1.20;;;22.20;57.30;;;;;;5113476;28;20242;-64
2023/01/27 13:49:32;;;;;;;3.20;1.20;;;22.10;57.30;;;;;;5111736;28;20611;-63
2023/01/27 13:52:20;;;;;;;1.20;1.10;;;22.10;57.40;;;;;;5113168;28;20206;-64
2023/01/27 13:55:12;;;;;;;1.20;1.02;;;22.10;57.50;;;;;;5112586;28;20619;-63
2023/01/27 13:58:05;;;;;;;1.65;1.30;;;22.60;62.00;;;;;;5099268;28;20223;-63
2023/01/27 14:01:02;;;;;;;1.25;1.15;;;22.10;57.50;;;;;;5091972;28;20283;-63
2023/01/27 14:04:12;;;;;;;1.85;1.10;;;22.20;57.50;;;;;;5093090;28;20275;-63
2023/01/27 14:07:09;;;;;;;3.58;1.70;;;22.20;57.40;;;;;;5092144;28;20298;-63
2023/01/27 14:10:11;;;;;;;2.25;1.55;;;22.20;57.40;;;;;;5091841;28;20305;-63
2023/01/27 14:13:19;;;;;;;1.40;1.30;;;22.20;57.30;;;;;;5092876;28;20208;-63
2023/01/27 14:16:15;;;;;;;3.65;1.52;;;22.30;57.30;;;;;;5092246;28;20334;-63
2023/01/27 14:19:09;;;;;;;1.25;1.10;;;22.30;57.20;;;;;;5091907;28;20223;-62
2023/01/27 14:22:03;;;;;;;2.13;1.25;;;22.30;57.20;;;;;;5092046;28;20329;-63
2023/01/27 14:24:56;;;;;;;1.55;1.08;;;22.30;57.20;;;;;;5092096;28;20219;-63
2023/01/27 14:27:47;;;;;;;1.55;1.30;;;22.40;57.00;;;;;;5092027;28;20617;-63
2023/01/27 14:30:39;;;;;;;1.58;1.48;;;22.30;57.20;;;;;;5092994;28;20226;-63
2023/01/27 14:33:54;;;;;;;1.20;1.10;;;22.30;57.20;;;;;;5110821;28;20199;-63
2023/01/27 14:36:48;;;;;;;1.33;1.20;;;22.20;57.10;;;;;;5107582;28;20687;-63
2023/01/27 14:39:45;;;;;;;1.42;1.13;;;22.20;57.20;;;;;;5103441;28;20231;-62
2023/01/27 14:42:40;;;;;;;1.33;1.23;;;22.20;57.20;;;;;;5112288;28;20278;-63
2023/01/27 14:45:32;;;;;;;1.40;1.30;;;22.20;57.30;;;;;;5111893;28;20690;-63
2023/01/27 14:48:47;;;;;;;2.22;1.63;;;22.10;56.90;;;;;;5093333;28;20318;-65
2023/01/27 14:51:41;;;;;;;1.77;1.30;;;22.10;57.40;;;;;;5109978;28;20235;-63
2023/01/27 14:54:50;;;;;;;1.25;1.15;;;22.10;57.40;;;;;;5092042;28;20645;-63
2023/01/27 14:57:45;;;;;;;1.73;1.40;;;22.10;57.40;;;;;;5102252;28;20219;-64
2023/01/27 15:00:43;;;;;;;1.48;1.20;;;22.10;56.80;;;;;;5111123;28;20641;-63
2023/01/27 15:03:50;;;;;;;1.50;1.13;;;22.10;57.40;;;;;;5111670;28;20195;-63
2023/01/27 15:06:46;;;;;;;1.77;1.67;;;22.20;57.30;;;;;;5103325;28;20214;-63
2023/01/27 15:09:52;;;;;;;1.80;1.40;;;22.20;57.30;;;;;;5091007;28;20680;-63
2023/01/27 15:12:55;;;;;;;1.40;1.30;;;22.20;57.30;;;;;;5091892;28;20459;-63
2023/01/27 15:16:02;;;;;;;5.45;1.40;;;22.20;57.20;;;;;;5091001;28;20210;-62
2023/01/27 15:19:13;;;;;;;1.95;1.20;;;22.30;57.20;;;;;;5090262;28;20255;-62
2023/01/27 15:22:29;;;;;;;2.22;1.50;;;22.30;57.20;;;;;;5090371;28;20284;-63
2023/01/27 15:25:28;;;;;;;1.85;1.40;;;22.30;57.10;;;;;;5091041;28;20259;-63